createdAt,value
2018-07-17T11:40:38.439Z,25.21
2018-07-17T11:41:29.359Z,25.16
2018-07-17T11:42:30.387Z,25.16
2018-07-17T11:43:29.520Z,25.15
2018-07-17T11:44:29.381Z,25.15
2018-07-17T11:45:29.326Z,25.16
2018-07-17T11:46:29.358Z,25.21
2018-07-17T11:47:29.429Z,25.11
2018-07-17T11:48:29.425Z,25.18
2018-07-17T11:49:29.371Z,25.16
2018-07-17T11:50:29.335Z,25.15
2018-07-17T11:51:29.349Z,25.22
2018-07-17T11:52:29.387Z,25.14
2018-07-17T11:53:29.484Z,25.16
2018-07-17T11:54:29.428Z,25.18
2018-07-17T11:55:29.430Z,25.19
2018-07-17T11:56:29.322Z,25.24
2018-07-17T11:57:29.426Z,25.06
2018-07-17T11:58:29.361Z,25.21
2018-07-17T11:59:29.567Z,25.19
2018-07-17T12:00:29.331Z,25.15
2018-07-17T12:01:29.571Z,25.11
2018-07-17T12:02:29.334Z,25.15
2018-07-17T12:03:29.423Z,25.09
2018-07-17T12:04:29.476Z,25.04
2018-07-17T12:05:29.532Z,25.09
2018-07-17T12:06:29.397Z,25.07
2018-07-17T12:07:29.340Z,25.07
2018-07-17T12:08:29.347Z,25.06
2018-07-17T12:09:29.465Z,25.09
2018-07-17T12:10:29.417Z,25.11
2018-07-17T12:11:29.419Z,25.06
2018-07-17T12:12:29.433Z,25.11
2018-07-17T12:13:29.353Z,25.11
2018-07-17T12:14:29.430Z,25.14
2018-07-17T12:15:29.961Z,25.15
2018-07-17T12:16:30.074Z,25.11
2018-07-17T12:17:29.486Z,25.12
2018-07-17T12:18:29.418Z,25.09
2018-07-17T12:19:29.393Z,25.14
2018-07-17T12:20:29.824Z,25.03
2018-07-17T12:21:29.436Z,25.11
2018-07-17T12:22:29.438Z,25.12
2018-07-17T12:23:29.447Z,25.12
2018-07-17T12:24:29.449Z,25.15
2018-07-17T12:25:29.424Z,25.07
2018-07-17T12:26:29.421Z,25.15
2018-07-17T12:27:29.401Z,25.07
2018-07-17T12:28:29.420Z,25.14
2018-07-17T12:29:29.512Z,25.07
2018-07-17T12:30:29.461Z,25.12
2018-07-17T12:31:29.553Z,25.16
2018-07-17T12:32:29.454Z,25.09
2018-07-17T12:33:29.544Z,25.19
2018-07-17T12:34:29.448Z,25.06
2018-07-17T12:35:29.484Z,25.14
2018-07-17T12:36:29.564Z,25.09
2018-07-17T12:37:29.499Z,25.11
2018-07-17T12:38:29.506Z,25.18
2018-07-17T12:39:29.451Z,25.22
2018-07-17T12:40:29.398Z,25.11
2018-07-17T12:41:29.430Z,25.16
2018-07-17T12:42:29.465Z,25.14
2018-07-17T12:43:29.448Z,25.16
2018-07-17T12:44:29.616Z,25.09
2018-07-17T12:45:29.483Z,25.12
2018-07-17T12:46:29.471Z,25.09
2018-07-17T12:47:29.471Z,25.04
2018-07-17T12:48:29.433Z,25.12
2018-07-17T12:49:29.443Z,25.07
2018-07-17T12:50:29.470Z,25.11
2018-07-17T12:51:35.153Z,25.15
2018-07-17T12:52:29.509Z,25.15
2018-07-17T12:53:29.521Z,25.15
2018-07-17T12:54:29.429Z,25.16
2018-07-17T12:55:29.516Z,25.09
2018-07-17T12:56:29.586Z,25.16
2018-07-17T12:57:29.491Z,25.11
2018-07-17T12:58:29.571Z,25.14
2018-07-17T12:59:29.483Z,25.12
2018-07-17T13:00:29.490Z,25.09
2018-07-17T13:01:29.510Z,25.07
2018-07-17T13:02:29.470Z,25.09
2018-07-17T13:03:29.532Z,25.06
2018-07-17T13:04:29.487Z,25.09
2018-07-17T13:05:29.473Z,25.11
2018-07-17T13:06:29.585Z,25.07
2018-07-17T13:07:30.412Z,25.07
2018-07-17T13:08:29.564Z,25.06
2018-07-17T13:09:29.565Z,25.07
2018-07-17T13:10:29.493Z,25.16
2018-07-17T13:11:29.508Z,25.14
2018-07-17T13:12:30.258Z,25.14
2018-07-17T13:13:29.573Z,25.07
2018-07-17T13:14:29.496Z,25.18
2018-07-17T13:15:29.663Z,25.11
2018-07-17T13:16:31.892Z,25.16
2018-07-17T13:17:29.724Z,25.07
2018-07-17T13:18:29.581Z,25.12
2018-07-17T13:19:29.557Z,25.14
2018-07-17T13:20:29.573Z,25.11
2018-07-17T13:21:29.536Z,25.14
2018-07-17T13:22:29.527Z,25.12
2018-07-17T13:23:29.609Z,25.09
2018-07-17T13:24:29.539Z,25.16
2018-07-17T13:25:29.618Z,25.15
2018-07-17T13:26:29.547Z,25.12
2018-07-17T13:27:29.573Z,25.22
2018-07-17T13:28:29.592Z,25.15
2018-07-17T13:29:29.656Z,25.18
2018-07-17T13:30:31.179Z,25.11
2018-07-17T13:31:30.424Z,25.09
2018-07-17T13:32:29.550Z,25.22
2018-07-17T13:33:29.550Z,25.19
2018-07-17T13:34:29.640Z,25.11
2018-07-17T13:35:29.576Z,25.09
2018-07-17T13:36:29.565Z,25.18
2018-07-17T13:37:29.585Z,25.14
2018-07-17T13:38:29.631Z,25.18
2018-07-17T13:39:29.757Z,25.16
2018-07-17T13:40:29.563Z,25.16
2018-07-17T13:41:29.621Z,25.11
2018-07-17T13:42:29.598Z,25.18
2018-07-17T13:43:29.613Z,25.18
2018-07-17T13:44:29.590Z,25.18
2018-07-17T13:45:29.569Z,25.16
2018-07-17T13:46:29.581Z,25.19
2018-07-17T13:47:29.577Z,25.16
2018-07-17T13:48:29.741Z,25.18
2018-07-17T13:49:29.589Z,25.18
2018-07-17T13:50:29.701Z,25.19
2018-07-17T13:51:29.874Z,25.15
2018-07-17T13:52:29.546Z,25.16
2018-07-17T13:53:29.624Z,25.16
2018-07-17T13:54:29.622Z,25.18
2018-07-17T13:55:29.660Z,25.21
2018-07-17T13:56:29.666Z,25.18
2018-07-17T13:57:29.596Z,25.12
2018-07-17T13:58:29.596Z,25.18
2018-07-17T13:59:29.590Z,25.14
2018-07-17T14:00:29.611Z,25.21
2018-07-17T14:01:29.619Z,25.15
2018-07-17T14:02:29.704Z,25.16
2018-07-17T14:03:29.616Z,25.15
2018-07-17T14:04:29.648Z,25.19
2018-07-17T14:05:29.607Z,25.18
2018-07-17T14:06:29.605Z,25.14
2018-07-17T14:07:29.612Z,25.21
2018-07-17T14:08:29.583Z,25.22
2018-07-17T14:09:29.676Z,25.21
2018-07-17T14:10:29.691Z,25.22
2018-07-17T14:11:29.644Z,25.21
2018-07-17T14:12:29.742Z,25.21
2018-07-17T14:13:29.643Z,25.25
2018-07-17T14:14:29.576Z,25.19
2018-07-17T14:15:29.641Z,25.14
2018-07-17T14:16:29.627Z,25.16
2018-07-17T14:17:29.856Z,25.19
2018-07-17T14:18:29.658Z,25.26
2018-07-17T14:19:29.614Z,25.25
2018-07-17T14:20:29.705Z,25.16
2018-07-17T14:21:29.698Z,25.29
2018-07-17T14:22:29.682Z,25.22
2018-07-17T14:23:29.663Z,25.19
2018-07-17T14:24:29.645Z,25.14
2018-07-17T14:25:29.684Z,25.16
2018-07-17T14:26:29.896Z,25.26
2018-07-17T14:27:29.718Z,25.25
2018-07-17T14:28:29.703Z,25.24
2018-07-17T14:29:29.602Z,25.24
2018-07-17T14:30:29.695Z,25.29
2018-07-17T14:31:29.685Z,25.26
2018-07-17T14:32:29.646Z,25.24
2018-07-17T14:33:29.692Z,25.22
2018-07-17T14:34:29.721Z,25.25
2018-07-17T14:35:29.655Z,25.26
2018-07-17T14:36:30.314Z,25.25
2018-07-17T14:37:29.676Z,25.19
2018-07-17T14:38:29.791Z,25.21
2018-07-17T14:39:29.719Z,25.25
2018-07-17T14:40:29.649Z,25.21
2018-07-17T14:41:29.949Z,25.29
2018-07-17T14:42:29.729Z,25.3
2018-07-17T14:43:29.644Z,25.19
2018-07-17T14:44:29.668Z,25.3
2018-07-17T14:45:29.662Z,25.19
2018-07-17T14:46:29.714Z,25.3
2018-07-17T14:47:29.673Z,25.25
2018-07-17T14:48:29.757Z,25.29
2018-07-17T14:49:29.684Z,25.24
2018-07-17T14:50:29.657Z,25.29
2018-07-17T14:51:29.752Z,25.24
2018-07-17T14:52:29.674Z,25.29
2018-07-17T14:53:29.700Z,25.24
2018-07-17T14:54:29.706Z,25.24
2018-07-17T14:55:29.779Z,25.25
2018-07-17T14:56:30.069Z,25.24
2018-07-17T14:57:29.785Z,25.29
2018-07-17T14:58:29.720Z,25.22
2018-07-17T14:59:29.720Z,25.29
2018-07-17T15:00:29.675Z,25.31
2018-07-17T15:01:29.710Z,25.26
2018-07-17T15:02:29.765Z,25.22
2018-07-17T15:03:29.691Z,25.25
2018-07-17T15:04:29.735Z,25.26
2018-07-17T15:05:29.715Z,25.25
2018-07-17T15:06:29.736Z,25.31
2018-07-17T15:07:29.759Z,25.31
2018-07-17T15:08:29.755Z,25.3
2018-07-17T15:09:29.843Z,25.25
2018-07-17T15:10:29.741Z,25.31
2018-07-17T15:11:29.726Z,25.14
2018-07-17T15:12:29.785Z,25.3
2018-07-17T15:13:29.712Z,25.26
2018-07-17T15:14:30.477Z,25.3
2018-07-17T15:15:29.862Z,25.29
2018-07-17T15:16:29.750Z,25.26
2018-07-17T15:17:29.707Z,25.16
2018-07-17T15:18:29.789Z,25.26
2018-07-17T15:19:29.694Z,25.21
2018-07-17T15:20:29.758Z,25.29
2018-07-17T15:21:29.726Z,25.3
2018-07-17T15:22:29.919Z,25.34
2018-07-17T15:23:29.728Z,25.31
2018-07-17T15:24:29.803Z,25.31
2018-07-17T15:25:29.789Z,25.24
2018-07-17T15:26:29.683Z,25.37
2018-07-17T15:27:29.742Z,25.37
2018-07-17T15:28:29.752Z,25.39
2018-07-17T15:29:29.732Z,25.26
2018-07-17T15:30:29.739Z,25.24
2018-07-17T15:31:29.790Z,25.4
2018-07-17T15:32:29.820Z,25.31
2018-07-17T15:33:29.837Z,25.34
2018-07-17T15:34:29.773Z,25.3
2018-07-17T15:35:29.772Z,25.26
2018-07-17T15:36:29.837Z,25.3
2018-07-17T15:37:29.818Z,25.31
2018-07-17T15:38:29.933Z,25.37
2018-07-17T15:39:29.729Z,25.31
2018-07-17T15:40:29.805Z,25.39
2018-07-17T15:41:31.354Z,25.3
2018-07-17T15:42:29.775Z,25.31
2018-07-17T15:43:29.776Z,25.41
2018-07-17T15:44:29.775Z,25.26
2018-07-17T15:45:29.991Z,25.26
2018-07-17T15:46:30.589Z,25.43
2018-07-17T15:47:29.753Z,25.49
2018-07-17T15:48:29.811Z,25.37
2018-07-17T15:49:29.921Z,25.4
2018-07-17T15:50:29.794Z,25.39
2018-07-17T15:51:29.803Z,25.41
2018-07-17T15:52:29.801Z,25.46
2018-07-17T15:53:29.760Z,25.44
2018-07-17T15:54:29.907Z,25.48
2018-07-17T15:55:30.417Z,25.36
2018-07-17T15:56:29.778Z,25.39
2018-07-17T15:57:29.821Z,25.43
2018-07-17T15:58:29.791Z,25.43
2018-07-17T15:59:29.784Z,25.43
2018-07-17T16:00:29.831Z,25.34
2018-07-17T16:07:05.973Z,25.43
2018-07-17T16:07:17.554Z,25.41
2018-07-17T16:08:17.447Z,25.4
2018-07-17T16:09:17.393Z,25.36
2018-07-17T16:10:17.399Z,25.43
2018-07-17T16:11:17.419Z,25.4
2018-07-17T16:12:17.654Z,25.36
2018-07-17T16:13:17.594Z,25.46
2018-07-17T16:14:17.866Z,25.44
2018-07-17T16:15:17.439Z,25.46
2018-07-17T16:16:17.467Z,25.39
2018-07-17T16:17:17.573Z,25.3
2018-07-17T16:18:17.475Z,25.37
2018-07-17T16:19:17.460Z,25.3
2018-07-17T16:20:17.575Z,25.24
2018-07-17T16:21:17.504Z,25.33
2018-07-17T16:22:17.430Z,25.43
2018-07-17T16:23:17.463Z,25.33
2018-07-17T16:24:17.454Z,25.39
2018-07-17T16:25:17.433Z,25.33
2018-07-17T16:26:18.368Z,25.41
2018-07-17T16:27:17.446Z,25.29
2018-07-17T16:28:17.445Z,25.33
2018-07-17T16:29:17.497Z,25.46
2018-07-17T16:30:17.504Z,25.41
2018-07-17T16:31:17.565Z,25.3
2018-07-17T16:32:17.531Z,25.3
2018-07-17T16:33:17.576Z,25.41
2018-07-17T16:34:17.487Z,25.4
2018-07-17T16:35:17.432Z,25.31
2018-07-17T16:36:17.468Z,25.26
2018-07-17T16:37:17.558Z,25.34
2018-07-17T16:38:17.442Z,25.31
2018-07-17T16:39:17.484Z,25.26
2018-07-17T16:40:17.445Z,25.34
2018-07-17T16:41:17.434Z,25.31
2018-07-17T16:42:17.950Z,25.41
2018-07-17T16:43:17.468Z,25.34
2018-07-17T16:44:17.441Z,25.31
2018-07-17T16:45:17.447Z,25.39
2018-07-17T16:46:17.579Z,25.37
2018-07-17T16:47:17.881Z,25.39
2018-07-17T16:48:19.756Z,25.29
2018-07-17T16:49:17.423Z,25.31
2018-07-17T16:50:18.276Z,25.26
2018-07-17T16:51:17.589Z,25.25
2018-07-17T16:52:17.927Z,25.39
2018-07-17T16:53:18.200Z,25.29
2018-07-17T16:54:17.697Z,25.34
2018-07-17T16:55:17.497Z,25.39
2018-07-17T16:56:17.672Z,25.29
2018-07-17T16:57:17.602Z,25.26
2018-07-17T16:58:18.683Z,25.31
2018-07-17T16:59:17.603Z,25.26
2018-07-17T17:00:18.428Z,25.31
2018-07-17T17:01:18.121Z,25.33
2018-07-17T17:02:17.538Z,25.33
2018-07-17T17:03:17.544Z,25.36
2018-07-17T17:04:18.478Z,25.3
2018-07-17T17:05:18.335Z,25.33
2018-07-17T17:06:17.613Z,25.3
2018-07-17T17:07:17.545Z,25.26
2018-07-17T17:08:17.564Z,25.33
2018-07-17T17:09:17.559Z,25.34
2018-07-17T17:10:18.058Z,25.31
2018-07-17T17:11:17.553Z,25.31
2018-07-17T17:12:17.671Z,25.33
2018-07-17T17:13:17.589Z,25.33
2018-07-17T17:14:17.610Z,25.37
2018-07-17T17:15:17.654Z,25.26
2018-07-17T17:16:18.092Z,25.31
2018-07-17T17:17:17.589Z,25.33
2018-07-17T17:18:17.568Z,25.37
2018-07-17T17:23:35.142Z,25.26
2018-07-17T17:23:47.507Z,25.39
2018-07-17T17:29:04.345Z,25.37
2018-07-17T17:29:16.186Z,25.3
2018-07-17T17:30:16.106Z,25.33
2018-07-17T17:31:16.069Z,25.34
2018-07-17T17:32:16.914Z,25.37
2018-07-17T17:33:16.122Z,25.33
2018-07-17T17:34:16.161Z,25.34
2018-07-17T17:35:16.852Z,25.3
2018-07-17T17:36:16.168Z,25.24
2018-07-17T17:37:16.098Z,25.37
2018-07-17T17:38:16.128Z,25.3
2018-07-17T17:39:16.140Z,25.29
2018-07-17T17:40:16.111Z,25.29
2018-07-17T17:41:16.150Z,25.39
2018-07-17T17:42:16.960Z,25.29
2018-07-17T17:43:16.197Z,25.3
2018-07-17T17:44:16.178Z,25.33
2018-07-17T17:45:16.161Z,25.4
2018-07-17T17:46:16.259Z,25.3
2018-07-17T17:47:16.139Z,25.3
2018-07-17T17:48:16.270Z,25.3
2018-07-17T17:49:17.723Z,25.34
2018-07-17T17:50:16.160Z,25.26
2018-07-17T17:51:16.218Z,25.29
2018-07-17T17:52:16.947Z,25.21
2018-07-17T17:53:16.147Z,25.25
2018-07-17T17:54:16.166Z,25.3
2018-07-17T17:55:16.172Z,25.26
2018-07-17T17:56:16.227Z,25.29
2018-07-17T17:57:16.180Z,25.29
2018-07-17T17:58:16.171Z,25.34
2018-07-17T17:59:16.173Z,25.31
2018-07-17T18:00:16.148Z,25.37
2018-07-17T18:01:16.128Z,25.26
2018-07-17T18:02:16.166Z,25.26
2018-07-17T18:03:16.148Z,25.3
2018-07-17T18:04:16.176Z,25.31
2018-07-17T18:05:16.138Z,25.24
2018-07-17T18:06:16.153Z,25.31
2018-07-17T18:07:16.201Z,25.3
2018-07-17T18:08:16.233Z,25.26
2018-07-17T18:09:16.176Z,25.25
2018-07-17T18:10:16.252Z,25.36
2018-07-17T18:11:16.198Z,25.3
2018-07-17T18:12:17.342Z,25.31
2018-07-17T18:13:16.164Z,25.25
2018-07-17T18:17:45.160Z,25.24
2018-07-17T18:18:45.141Z,25.29
2018-07-17T18:19:45.242Z,25.3
2018-07-17T18:20:45.135Z,25.16
2018-07-17T18:21:45.115Z,25.26
2018-07-17T18:22:45.498Z,25.25
2018-07-17T18:23:45.073Z,25.31
2018-07-17T18:24:45.168Z,25.25
2018-07-17T18:25:50.496Z,25.21
2018-07-17T18:26:45.165Z,25.34
2018-07-17T18:27:45.100Z,25.26
2018-07-17T18:28:45.208Z,25.21
2018-07-17T18:29:45.144Z,25.26
2018-07-17T18:30:45.115Z,25.26
2018-07-17T18:31:45.892Z,25.22
2018-07-17T18:32:45.134Z,25.3
2018-07-17T18:33:45.134Z,25.34
2018-07-17T18:34:45.142Z,25.26
2018-07-17T18:35:45.225Z,25.31
2018-07-17T18:36:45.104Z,25.25
2018-07-17T18:37:45.120Z,25.22
2018-07-17T18:38:45.202Z,25.33
2018-07-17T18:39:45.098Z,25.3
2018-07-17T18:40:45.115Z,25.26
2018-07-17T18:41:45.158Z,25.25
2018-07-17T18:42:45.116Z,25.26
2018-07-17T18:43:45.083Z,25.3
2018-07-17T18:44:45.130Z,25.25
2018-07-17T18:45:45.132Z,25.21
2018-07-17T18:46:45.227Z,25.33
2018-07-17T18:47:45.217Z,25.26
2018-07-17T18:48:45.136Z,25.25
2018-07-17T18:49:45.111Z,25.29
2018-07-17T18:50:45.165Z,25.3
2018-07-17T18:51:45.225Z,25.22
2018-07-17T18:52:45.108Z,25.29
2018-07-17T18:53:45.299Z,25.25
2018-07-17T18:54:45.147Z,25.34
2018-07-17T18:55:45.073Z,25.3
2018-07-17T18:56:45.109Z,25.3
2018-07-17T18:57:45.113Z,25.25
2018-07-17T18:58:45.237Z,25.3
2018-07-17T18:59:45.456Z,25.29
2018-07-17T19:00:45.236Z,25.26
2018-07-17T19:01:45.274Z,25.31
2018-07-17T19:02:45.317Z,25.33
2018-07-17T19:03:45.312Z,25.18
2018-07-17T19:04:45.206Z,25.18
2018-07-17T19:05:45.167Z,25.26
2018-07-17T19:06:45.175Z,25.26
2018-07-17T19:07:45.233Z,25.25
2018-07-17T19:08:45.215Z,25.26
2018-07-17T19:09:45.229Z,25.34
2018-07-17T19:10:45.206Z,25.3
2018-07-17T19:11:45.162Z,25.33
2018-07-17T19:12:45.132Z,25.29
2018-07-17T19:13:45.199Z,25.24
2018-07-17T19:14:45.247Z,25.22
2018-07-17T19:15:45.180Z,25.26
2018-07-17T19:16:45.199Z,25.34
2018-07-17T19:17:45.118Z,25.26
2018-07-17T19:18:45.179Z,25.22
2018-07-17T19:19:45.200Z,25.24
2018-07-17T19:20:45.160Z,25.34
2018-07-17T19:21:45.219Z,25.3
2018-07-17T19:22:45.203Z,25.31
2018-07-17T19:23:45.200Z,25.31
2018-07-17T19:24:45.394Z,25.22
2018-07-17T19:25:45.239Z,25.33
2018-07-17T19:26:45.250Z,25.26
2018-07-17T19:27:45.151Z,25.26
2018-07-17T19:28:45.180Z,25.24
2018-07-17T19:29:45.238Z,25.33
2018-07-17T19:30:45.204Z,25.3
2018-07-17T19:31:45.176Z,25.33
2018-07-17T19:32:45.264Z,25.25
2018-07-17T19:33:45.167Z,25.29
2018-07-17T19:34:45.185Z,25.3
2018-07-17T19:35:45.254Z,25.31
2018-07-17T19:36:45.225Z,25.29
2018-07-17T19:37:45.266Z,25.26
2018-07-17T19:38:45.220Z,25.25
2018-07-17T19:39:46.155Z,25.22
2018-07-17T19:40:45.359Z,25.3
2018-07-17T19:41:45.171Z,25.31
2018-07-17T19:42:45.177Z,25.22
2018-07-17T19:43:45.356Z,25.19
2018-07-17T19:44:45.240Z,25.25
2018-07-17T19:45:45.221Z,25.29
2018-07-17T19:46:45.221Z,25.22
2018-07-17T19:47:45.308Z,25.31
2018-07-17T19:48:45.261Z,25.31
2018-07-17T19:49:45.225Z,25.29
2018-07-17T19:50:45.256Z,25.26
2018-07-17T19:51:45.230Z,25.25
2018-07-17T19:52:45.317Z,25.24
2018-07-17T19:53:45.226Z,25.24
2018-07-17T19:54:45.256Z,25.3
2018-07-17T19:55:45.220Z,25.24
2018-07-17T19:56:45.269Z,25.25
2018-07-17T19:57:45.223Z,25.29
2018-07-17T19:58:45.252Z,25.31
2018-07-17T19:59:45.206Z,25.25
2018-07-17T20:00:45.189Z,25.25
2018-07-17T20:01:45.325Z,25.25
2018-07-17T20:02:45.251Z,25.29
2018-07-17T20:03:45.310Z,25.26
2018-07-17T20:04:45.326Z,25.18
2018-07-17T20:05:45.250Z,25.29
2018-07-17T20:06:45.298Z,25.24
2018-07-17T20:07:45.289Z,25.22
2018-07-17T20:08:45.321Z,25.25
2018-07-17T20:09:45.240Z,25.24
2018-07-17T20:14:14.450Z,25.22
2018-07-17T20:15:14.336Z,25.19
2018-07-17T20:16:14.311Z,25.26
2018-07-17T20:17:14.319Z,25.16
2018-07-17T20:18:14.940Z,25.22
2018-07-17T20:23:31.651Z,25.24
2018-07-17T20:23:43.980Z,25.12
2018-07-17T20:24:43.534Z,25.18
2018-07-17T20:25:43.221Z,25.16
2018-07-17T20:26:43.414Z,25.18
2018-07-17T20:27:43.347Z,25.18
2018-07-17T20:28:43.350Z,25.11
2018-07-17T20:29:43.265Z,25.15
2018-07-17T20:30:43.320Z,25.19
2018-07-17T20:31:43.345Z,25.26
2018-07-17T20:32:43.998Z,25.22
2018-07-17T20:33:43.350Z,25.31
2018-07-17T20:34:43.293Z,25.25
2018-07-17T20:35:43.383Z,25.31
2018-07-17T20:36:43.266Z,25.25
2018-07-17T20:37:43.375Z,25.22
2018-07-17T20:38:43.423Z,25.22
2018-07-17T20:39:43.293Z,25.21
2018-07-17T20:40:43.395Z,25.26
2018-07-17T20:41:43.439Z,25.25
2018-07-17T20:42:43.342Z,25.26
2018-07-17T20:43:43.455Z,25.31
2018-07-17T20:44:44.245Z,25.26
2018-07-17T20:45:43.562Z,25.36
2018-07-17T20:46:43.404Z,25.34
2018-07-17T20:47:43.394Z,25.37
2018-07-17T20:48:44.155Z,25.43
2018-07-17T20:49:43.633Z,25.26
2018-07-17T20:50:43.341Z,25.33
2018-07-17T20:51:43.402Z,25.31
2018-07-17T20:52:43.486Z,25.33
2018-07-17T20:53:43.302Z,25.3
2018-07-17T20:54:43.767Z,25.31
2018-07-17T20:55:43.724Z,25.41
2018-07-17T20:56:43.275Z,25.26
2018-07-17T20:57:43.260Z,25.41
2018-07-17T20:58:44.753Z,25.43
2018-07-17T20:59:43.287Z,25.4
2018-07-17T21:00:43.329Z,25.3
2018-07-17T21:01:43.385Z,25.37
2018-07-17T21:02:43.437Z,25.49
2018-07-17T21:03:43.468Z,25.4
2018-07-17T21:04:43.430Z,25.43
2018-07-17T21:05:43.489Z,25.44
2018-07-17T21:06:43.395Z,25.39
2018-07-17T21:07:43.393Z,25.37
2018-07-17T21:08:43.377Z,25.44
2018-07-17T21:09:43.345Z,25.51
2018-07-17T21:10:43.420Z,25.55
2018-07-17T21:11:43.424Z,25.46
2018-07-17T21:12:43.353Z,25.48
2018-07-17T21:13:43.382Z,25.55
2018-07-17T21:14:43.394Z,25.41
2018-07-17T21:15:43.370Z,25.48
2018-07-17T21:16:43.278Z,25.51
2018-07-17T21:17:43.342Z,25.44
2018-07-17T21:18:59.626Z,25.51
2018-07-17T21:19:59.629Z,25.46
2018-07-17T21:20:59.535Z,25.48
2018-07-17T21:21:59.440Z,25.46
2018-07-17T21:22:59.502Z,25.52
2018-07-17T21:23:59.500Z,25.46
2018-07-17T21:24:59.564Z,25.51
2018-07-17T21:25:59.457Z,25.46
2018-07-17T21:26:59.630Z,25.54
2018-07-17T21:27:59.464Z,25.58
2018-07-17T21:28:59.481Z,25.56
2018-07-17T21:29:59.534Z,25.55
2018-07-17T21:31:00.477Z,25.55
2018-07-17T21:31:59.504Z,25.61
2018-07-17T21:32:59.505Z,25.52
2018-07-17T21:33:59.503Z,25.59
2018-07-17T21:34:59.526Z,25.61
2018-07-17T21:35:59.642Z,25.54
2018-07-17T21:36:59.508Z,25.46
2018-07-17T21:37:59.543Z,25.46
2018-07-17T21:38:59.515Z,25.51
2018-07-17T21:39:59.528Z,25.46
2018-07-17T21:40:59.556Z,25.51
2018-07-17T21:41:59.589Z,25.43
2018-07-17T21:42:59.519Z,25.49
2018-07-17T21:43:59.476Z,25.49
2018-07-17T21:44:59.508Z,25.44
2018-07-17T21:45:59.548Z,25.44
2018-07-17T21:46:59.545Z,25.46
2018-07-17T21:47:59.501Z,25.49
2018-07-17T21:48:59.565Z,25.46
2018-07-17T21:49:59.517Z,25.4
2018-07-17T21:50:59.525Z,25.43
2018-07-17T21:51:59.549Z,25.31
2018-07-17T21:52:59.531Z,25.41
2018-07-17T21:53:59.628Z,25.33
2018-07-17T21:54:59.498Z,25.36
2018-07-17T21:55:59.578Z,25.43
2018-07-17T21:56:59.590Z,25.39
2018-07-17T21:57:59.594Z,25.31
2018-07-17T21:58:59.527Z,25.4
2018-07-17T21:59:59.552Z,25.43
2018-07-17T22:00:59.543Z,25.33
2018-07-17T22:01:59.525Z,25.36
2018-07-17T22:03:00.599Z,25.33
2018-07-17T22:08:17.323Z,25.31
2018-07-17T22:09:33.538Z,25.33
2018-07-17T22:10:33.442Z,25.41
2018-07-17T22:11:33.529Z,25.26
2018-07-17T22:12:33.456Z,25.33
2018-07-17T22:13:33.793Z,25.39
2018-07-17T22:14:33.486Z,25.34
2018-07-17T22:15:33.549Z,25.26
2018-07-17T22:16:33.489Z,25.36
2018-07-17T22:17:33.436Z,25.33
2018-07-17T22:18:33.491Z,25.31
2018-07-17T22:19:33.497Z,25.29
2018-07-17T22:20:33.473Z,25.37
2018-07-17T22:21:33.513Z,25.31
2018-07-17T22:22:33.492Z,25.29
2018-07-17T22:23:33.491Z,25.3
2018-07-17T22:24:33.472Z,25.41
2018-07-17T22:25:33.484Z,25.39
2018-07-17T22:26:33.488Z,25.33
2018-07-17T22:27:33.468Z,25.26
2018-07-17T22:28:33.548Z,25.26
2018-07-17T22:29:33.495Z,25.33
2018-07-17T22:30:33.515Z,25.25
2018-07-17T22:31:33.517Z,25.34
2018-07-17T22:32:33.535Z,25.3
2018-07-17T22:33:33.535Z,25.36
2018-07-17T22:34:33.538Z,25.29
2018-07-17T22:35:33.544Z,25.34
2018-07-17T22:36:33.527Z,25.34
2018-07-17T22:37:33.519Z,25.41
2018-07-17T22:38:33.539Z,25.31
2018-07-17T22:39:33.647Z,25.3
2018-07-17T22:40:33.504Z,25.37
2018-07-17T22:41:33.535Z,25.33
2018-07-17T22:42:33.497Z,25.37
2018-07-17T22:43:33.482Z,25.34
2018-07-17T22:44:33.510Z,25.34
2018-07-17T22:45:33.533Z,25.3
2018-07-17T22:46:33.545Z,25.39
2018-07-17T22:49:41.158Z,25.36
2018-07-17T22:49:52.789Z,25.41
2018-07-17T22:50:52.729Z,25.37
2018-07-17T22:51:52.786Z,25.34
2018-07-17T22:52:52.732Z,25.4
2018-07-17T22:53:52.769Z,25.33
2018-07-17T22:54:53.971Z,25.41
2018-07-17T22:55:52.776Z,25.31
2018-07-17T22:56:52.682Z,25.37
2018-07-17T22:57:52.766Z,25.39
2018-07-17T22:58:52.800Z,25.46
2018-07-17T22:59:52.805Z,25.33
2018-07-17T23:00:52.816Z,25.37
2018-07-17T23:01:52.764Z,25.36
2018-07-17T23:02:52.806Z,25.37
2018-07-17T23:03:52.749Z,25.33
2018-07-17T23:04:52.811Z,25.4
2018-07-17T23:05:52.774Z,25.31
2018-07-17T23:06:52.792Z,25.33
2018-07-17T23:07:52.775Z,25.3
2018-07-17T23:08:52.789Z,25.44
2018-07-17T23:09:52.749Z,25.26
2018-07-17T23:10:52.875Z,25.31
2018-07-17T23:11:52.818Z,25.44
2018-07-17T23:12:52.807Z,25.46
2018-07-17T23:13:52.785Z,25.31
2018-07-17T23:14:52.788Z,25.33
2018-07-17T23:15:52.752Z,25.43
2018-07-17T23:16:52.772Z,25.3
2018-07-17T23:17:52.766Z,25.29
2018-07-17T23:18:52.771Z,25.41
2018-07-17T23:19:52.781Z,25.37
2018-07-17T23:20:52.760Z,25.29
2018-07-17T23:21:52.766Z,25.3
2018-07-17T23:22:52.802Z,25.4
2018-07-17T23:23:52.784Z,25.4
2018-07-17T23:24:52.789Z,25.36
2018-07-17T23:25:52.796Z,25.29
2018-07-17T23:26:52.837Z,25.39
2018-07-17T23:27:52.835Z,25.34
2018-07-17T23:28:52.814Z,25.34
2018-07-17T23:29:52.843Z,25.37
2018-07-17T23:30:52.831Z,25.34
2018-07-17T23:31:52.814Z,25.31
2018-07-17T23:32:54.154Z,25.26
2018-07-17T23:33:52.869Z,25.25
2018-07-17T23:34:52.803Z,25.33
2018-07-17T23:35:52.780Z,25.29
2018-07-17T23:36:52.783Z,25.29
2018-07-17T23:37:52.800Z,25.36
2018-07-17T23:38:52.785Z,25.37
2018-07-17T23:39:52.818Z,25.33
2018-07-17T23:40:52.799Z,25.26
2018-07-17T23:41:52.825Z,25.34
2018-07-17T23:42:52.821Z,25.31
2018-07-17T23:43:52.782Z,25.26
2018-07-17T23:44:52.798Z,25.31
2018-07-17T23:45:52.768Z,25.33
2018-07-17T23:46:52.803Z,25.33
2018-07-17T23:47:52.842Z,25.41
2018-07-17T23:48:52.761Z,25.37
2018-07-17T23:49:52.799Z,25.33
2018-07-17T23:50:52.809Z,25.3
2018-07-17T23:51:52.830Z,25.3
2018-07-17T23:52:52.834Z,25.43
2018-07-17T23:53:52.824Z,25.31
2018-07-17T23:54:52.778Z,25.4
2018-07-17T23:55:52.809Z,25.26
2018-07-17T23:56:52.838Z,25.26
2018-07-17T23:57:52.857Z,25.39
2018-07-17T23:58:52.802Z,25.33
2018-07-17T23:59:52.812Z,25.31
